createdAt,value
2022-10-11T00:01:25.236Z,77.70
2022-10-11T00:06:27.869Z,77.70
2022-10-11T00:11:31.691Z,77.70
2022-10-11T00:16:34.013Z,77.80
2022-10-11T00:21:36.421Z,77.90
2022-10-11T00:26:44.371Z,78.20
2022-10-11T00:31:48.791Z,78.40
2022-10-11T00:36:51.469Z,78.30
2022-10-11T00:41:55.573Z,78.30
2022-10-11T00:47:00.622Z,78.50
2022-10-11T00:52:06.874Z,78.60
2022-10-11T00:57:14.786Z,78.60
2022-10-11T01:02:19.550Z,79.00
2022-10-11T01:07:22.014Z,78.80
2022-10-11T01:12:29.659Z,78.90
2022-10-11T01:17:43.539Z,79.20
2022-10-11T01:23:14.823Z,79.40
2022-10-11T01:28:39.956Z,80.10
2022-10-11T01:33:52.231Z,80.00
2022-10-11T01:39:03.760Z,79.40
2022-10-11T01:44:11.830Z,79.30
2022-10-11T01:49:19.284Z,79.30
2022-10-11T01:55:07.982Z,79.50
2022-10-11T02:00:23.658Z,79.90
2022-10-11T02:05:35.627Z,79.50
2022-10-11T02:10:45.766Z,79.80
2022-10-11T02:15:50.108Z,79.50
2022-10-11T02:20:56.947Z,79.50
2022-10-11T02:26:00.095Z,79.80
2022-10-11T02:31:05.403Z,79.70
2022-10-11T02:36:16.182Z,80.00
2022-10-11T02:41:23.480Z,80.40
2022-10-11T02:46:27.844Z,80.20
2022-10-11T02:51:33.345Z,80.20
2022-10-11T02:56:35.875Z,80.60
2022-10-11T03:01:41.347Z,80.70
2022-10-11T03:06:45.840Z,80.60
2022-10-11T03:11:48.438Z,80.40
2022-10-11T03:16:53.610Z,80.20
2022-10-11T03:21:58.879Z,80.10
2022-10-11T03:27:01.236Z,80.20
2022-10-11T03:32:03.908Z,79.80
2022-10-11T03:37:07.900Z,80.10
2022-10-11T03:42:10.512Z,80.30
2022-10-11T03:47:16.212Z,80.20
2022-10-11T03:52:20.369Z,80.50
2022-10-11T03:57:22.849Z,80.30
2022-10-11T04:02:25.460Z,80.40
2022-10-11T04:07:29.929Z,80.40
2022-10-11T04:12:32.634Z,80.60
2022-10-11T04:17:35.132Z,80.50
2022-10-11T04:22:43.581Z,80.70
2022-10-11T04:27:46.103Z,81.00
2022-10-11T04:32:49.054Z,80.70
2022-10-11T04:37:52.933Z,80.70
2022-10-11T04:42:55.440Z,80.70
2022-10-11T04:47:57.776Z,80.90
2022-10-11T04:53:02.222Z,80.90
2022-10-11T04:58:05.028Z,80.80
2022-10-11T05:03:07.501Z,81.00
2022-10-11T05:08:12.343Z,80.90
2022-10-11T05:13:15.341Z,81.10
2022-10-11T05:18:18.059Z,81.20
2022-10-11T05:23:22.377Z,81.00
2022-10-11T05:28:25.045Z,81.20
2022-10-11T05:33:27.941Z,81.30
2022-10-11T05:38:32.502Z,81.30
2022-10-11T05:43:35.188Z,81.60
2022-10-11T05:48:38.044Z,81.60
2022-10-11T05:53:42.137Z,81.50
2022-10-11T05:58:45.096Z,81.60
2022-10-11T06:03:47.509Z,81.60
2022-10-11T06:08:51.841Z,81.80
2022-10-11T06:13:55.639Z,81.80
2022-10-11T06:18:58.979Z,81.70
2022-10-11T06:24:03.276Z,81.60
2022-10-11T06:29:06.192Z,81.60
2022-10-11T06:34:08.869Z,81.80
2022-10-11T06:39:13.681Z,82.30
2022-10-11T06:44:16.415Z,82.70
2022-10-11T06:49:23.143Z,82.30
2022-10-11T06:54:28.054Z,82.10
2022-10-11T06:59:30.704Z,81.60
2022-10-11T07:04:33.255Z,80.60
2022-10-11T07:09:37.617Z,78.90
2022-10-11T07:14:40.653Z,77.30
2022-10-11T07:19:43.197Z,77.40
2022-10-11T07:24:47.095Z,77.10
2022-10-11T07:29:50.000Z,76.60
2022-10-11T07:34:52.545Z,76.30
2022-10-11T07:39:57.532Z,74.40
2022-10-11T07:45:00.166Z,72.60
2022-10-11T07:50:02.640Z,72.20
2022-10-11T07:55:08.335Z,71.60
2022-10-11T08:00:12.155Z,71.50
2022-10-11T08:05:14.665Z,71.40
2022-10-11T08:10:19.011Z,70.00
2022-10-11T08:15:22.164Z,69.60
2022-10-11T08:20:24.747Z,69.10
2022-10-11T08:25:28.865Z,68.00
2022-10-11T08:30:31.527Z,67.20
2022-10-11T08:35:33.966Z,64.80
2022-10-11T08:40:38.049Z,64.10
2022-10-11T08:45:47.034Z,62.50
2022-10-11T08:50:52.623Z,61.80
2022-10-11T08:55:57.002Z,62.40
2022-10-11T09:01:01.455Z,61.70
2022-10-11T09:06:18.399Z,60.50
2022-10-11T09:11:31.438Z,58.20
2022-10-11T09:16:47.754Z,58.00
2022-10-11T09:22:00.422Z,57.30
2022-10-11T09:27:14.206Z,57.40
2022-10-11T09:32:18.899Z,55.70
2022-10-11T09:37:27.602Z,56.50
2022-10-11T09:42:31.732Z,55.10
2022-10-11T09:47:34.087Z,54.20
2022-10-11T09:52:49.561Z,54.70
2022-10-11T09:57:56.647Z,53.80
2022-10-11T10:03:01.506Z,53.60
2022-10-11T10:08:21.338Z,53.60
2022-10-11T10:13:29.607Z,53.80
2022-10-11T10:18:36.090Z,53.00
2022-10-11T10:23:38.568Z,52.60
2022-10-11T10:28:57.584Z,55.10
2022-10-11T10:34:01.675Z,52.60
2022-10-11T10:39:12.294Z,53.30
2022-10-11T10:44:16.354Z,51.20
2022-10-11T10:49:55.483Z,51.50
2022-10-11T10:54:55.834Z,50.40
2022-10-11T11:00:11.915Z,49.80
2022-10-11T11:05:39.807Z,49.20
2022-10-11T11:10:49.744Z,48.50
2022-10-11T11:16:07.290Z,48.30
2022-10-11T11:21:26.649Z,47.90
2022-10-11T11:26:39.709Z,47.80
2022-10-11T11:32:02.900Z,47.70
2022-10-11T11:37:21.914Z,47.80
2022-10-11T11:42:31.638Z,48.20
2022-10-11T11:47:41.254Z,48.60
2022-10-11T11:52:47.626Z,48.50
2022-10-11T11:58:00.183Z,48.80
2022-10-11T12:03:12.559Z,49.10
2022-10-11T12:08:25.831Z,50.20
2022-10-11T12:13:34.750Z,50.80
2022-10-11T12:18:50.216Z,51.80
2022-10-11T12:23:54.499Z,52.90
2022-10-11T12:29:28.767Z,53.60
2022-10-11T12:39:49.849Z,54.80
2022-10-11T12:45:31.667Z,55.10
2022-10-11T12:50:49.200Z,55.40
2022-10-11T12:55:59.464Z,55.50
2022-10-11T13:01:29.497Z,55.70
2022-10-11T13:06:35.866Z,56.20
2022-10-11T13:11:46.631Z,56.50
2022-10-11T13:16:56.795Z,56.50
2022-10-11T13:22:03.957Z,56.70
2022-10-11T13:27:07.289Z,56.80
2022-10-11T13:32:14.844Z,57.00
2022-10-11T13:37:21.713Z,56.50
2022-10-11T13:42:29.005Z,56.00
2022-10-11T13:47:33.219Z,55.40
2022-10-11T13:52:53.020Z,55.50
2022-10-11T13:57:56.825Z,54.90
2022-10-11T14:03:02.733Z,55.60
2022-10-11T14:08:22.265Z,54.70
2022-10-11T14:13:29.612Z,53.90
2022-10-11T14:18:46.069Z,53.00
2022-10-11T14:23:51.694Z,52.40
2022-10-11T14:28:57.977Z,52.90
2022-10-11T14:34:01.018Z,52.70
2022-10-11T14:39:20.948Z,53.20
2022-10-11T14:44:24.066Z,53.40
2022-10-11T14:49:28.886Z,54.00
2022-10-11T14:54:34.118Z,54.40
2022-10-11T14:59:38.131Z,54.70
2022-10-11T15:04:40.784Z,54.60
2022-10-11T15:09:44.881Z,55.20
2022-10-11T15:15:17.029Z,54.60
2022-10-11T15:20:30.948Z,54.80
2022-10-11T15:25:36.645Z,55.00
2022-10-11T15:30:41.617Z,55.10
2022-10-11T15:35:44.814Z,55.20
2022-10-11T15:40:52.242Z,55.30
2022-10-11T15:45:57.650Z,55.50
2022-10-11T15:51:00.369Z,55.80
2022-10-11T15:56:07.807Z,56.00
2022-10-11T16:01:14.046Z,56.50
2022-10-11T16:06:17.744Z,56.70
2022-10-11T16:11:21.952Z,56.90
2022-10-11T16:16:27.470Z,57.40
2022-10-11T16:21:29.935Z,57.60
2022-10-11T16:26:34.422Z,58.00
2022-10-11T16:31:37.035Z,58.30
2022-10-11T16:36:39.553Z,58.50
2022-10-11T16:41:44.661Z,58.60
2022-10-11T16:46:49.007Z,59.00
2022-10-11T16:51:58.771Z,59.30
2022-10-11T16:57:02.819Z,59.60
2022-10-11T17:02:06.751Z,59.60
2022-10-11T17:07:09.411Z,59.80
2022-10-11T17:12:15.678Z,60.00
2022-10-11T17:17:20.214Z,60.50
2022-10-11T17:22:25.046Z,60.90
2022-10-11T17:27:30.544Z,61.10
2022-10-11T17:32:38.335Z,61.60
2022-10-11T17:37:41.046Z,61.70
2022-10-11T17:43:12.861Z,61.90
2022-10-11T17:48:24.327Z,63.40
2022-10-11T17:53:29.689Z,62.90
2022-10-11T17:58:37.772Z,63.10
2022-10-11T18:03:51.414Z,63.60
2022-10-11T18:08:57.951Z,63.50
2022-10-11T18:14:05.555Z,63.50
2022-10-11T18:19:26.444Z,63.80
2022-10-11T18:24:34.060Z,64.80
2022-10-11T18:29:41.519Z,64.80
2022-10-11T18:34:47.610Z,65.50
2022-10-11T18:39:53.047Z,65.50
2022-10-11T18:45:02.056Z,66.00
2022-10-11T18:50:23.237Z,66.20
2022-10-11T18:55:40.992Z,66.80
2022-10-11T19:01:05.599Z,66.50
2022-10-11T19:06:26.747Z,67.20
2022-10-11T19:11:41.359Z,67.20
2022-10-11T19:17:04.804Z,67.70
2022-10-11T19:22:21.863Z,68.00
2022-10-11T19:27:35.479Z,68.00
2022-10-11T19:32:45.985Z,67.80
2022-10-11T19:37:51.586Z,68.90
2022-10-11T19:42:56.410Z,68.20
2022-10-11T19:48:15.247Z,68.20
2022-10-11T19:53:35.841Z,69.70
2022-10-11T20:04:50.675Z,69.50
2022-10-11T20:09:45.313Z,69.10
2022-10-11T20:14:51.943Z,68.80
2022-10-11T20:20:07.586Z,69.40
2022-10-11T20:25:14.019Z,70.00
2022-10-11T20:36:01.825Z,69.40
2022-10-11T20:41:10.220Z,69.40
2022-10-11T20:46:22.659Z,68.90
2022-10-11T20:51:47.240Z,69.10
2022-10-11T20:57:01.115Z,69.90
2022-10-11T21:02:16.656Z,69.30
2022-10-11T21:07:32.562Z,69.70
2022-10-11T21:12:40.677Z,69.50
2022-10-11T21:17:45.843Z,69.40
2022-10-11T21:22:55.317Z,70.00
2022-10-11T21:28:00.271Z,71.30
2022-10-11T21:33:02.897Z,72.00
2022-10-11T21:38:32.175Z,71.60
2022-10-11T21:43:36.197Z,73.00
2022-10-11T21:48:41.967Z,71.50
2022-10-11T21:53:49.266Z,71.40
2022-10-11T21:58:53.636Z,71.50
2022-10-11T22:04:05.588Z,71.40
2022-10-11T22:09:09.853Z,71.00
2022-10-11T22:14:13.324Z,71.20
2022-10-11T22:19:15.804Z,71.50
2022-10-11T22:24:32.008Z,71.50
2022-10-11T22:29:34.593Z,71.90
2022-10-11T22:34:40.199Z,71.30
2022-10-11T22:39:51.439Z,71.30
2022-10-11T22:44:54.397Z,71.20
2022-10-11T22:49:57.065Z,70.80
2022-10-11T22:55:06.485Z,70.80
2022-10-11T23:00:10.641Z,71.40
2022-10-11T23:05:13.033Z,71.60
2022-10-11T23:10:24.070Z,72.00
2022-10-11T23:15:28.511Z,72.50
2022-10-11T23:20:31.141Z,72.40
2022-10-11T23:25:37.390Z,72.50
2022-10-11T23:30:40.233Z,73.10
2022-10-11T23:35:47.582Z,73.80
2022-10-11T23:40:59.400Z,74.10
2022-10-11T23:46:03.923Z,74.40
2022-10-11T23:51:11.228Z,74.30
2022-10-11T23:56:15.262Z,74.20
